EFW5QL EGKK-LGIR
Flight info
| Callsign | EFW5QL |
|---|---|
| Flight time | 3h 41m |
| Altitude | 33000 |
| Route | ODVIK Y311 DVR UL9 KONAN DCT KOK UL607 FERDI DCT REMBA UL607 SPI DCT VIBOM DCT NOMBO DCT RIDAR DCT RADIZ DCT ABISO DCT ZARVE DCT KOTOR/N0450F350 DCT NAVSU DCT EMKES DCT XELMI DCT AKIKA DCT BITLA DCT AGISA DCT SKP UL617 KEA UL607 GIVIS T514 XAVIS |
| Aircraft | A321/M-SDE3FGHIRWY/LB1 |
Departure
| Time | 2026-05-07 13:21 |
|---|---|
| Airport | London Gatwick Airport (EGKK) |
Arrival
| Time | 2026-05-07 17:03 |
|---|---|
| Airport | Heraklion International Nikos Kazantzakis Airport (LGIR) |
| Time | Latitude | Longitude | Altitude | Speed | Heading |
|---|---|---|---|---|---|
| 2026-05-07 12:37 | 51.15521 | -0.16660 | 205 ft | 0 kts | 347° |
| 2026-05-07 13:07 | 51.15504 | -0.16654 | 205 ft | 4 kts | 347° |
| 2026-05-07 13:07 | 51.15483 | -0.16647 | 214 ft | 4 kts | 340° |
| 2026-05-07 13:07 | 51.15464 | -0.16626 | 217 ft | 4 kts | 293° |
| 2026-05-07 13:08 | 51.15460 | -0.16588 | 213 ft | 3 kts | 258° |
| 2026-05-07 13:08 | 51.15457 | -0.16614 | 213 ft | 2 kts | 257° |
| 2026-05-07 13:08 | 51.15456 | -0.16617 | 214 ft | 0 kts | 257° |
| 2026-05-07 13:11 | 51.15455 | -0.16622 | 215 ft | 1 kts | 257° |
| 2026-05-07 13:12 | 51.15453 | -0.16635 | 214 ft | 2 kts | 257° |
| 2026-05-07 13:12 | 51.15451 | -0.16656 | 215 ft | 2 kts | 257° |
| 2026-05-07 13:12 | 51.15447 | -0.16683 | 215 ft | 3 kts | 260° |
| 2026-05-07 13:12 | 51.15447 | -0.16717 | 212 ft | 3 kts | 273° |
| 2026-05-07 13:13 | 51.15452 | -0.16755 | 211 ft | 4 kts | 282° |
| 2026-05-07 13:13 | 51.15449 | -0.16824 | 213 ft | 9 kts | 260° |
| 2026-05-07 13:13 | 51.15432 | -0.16956 | 214 ft | 15 kts | 257° |
| 2026-05-07 13:13 | 51.15404 | -0.17137 | 210 ft | 17 kts | 248° |
| 2026-05-07 13:14 | 51.15376 | -0.17257 | 211 ft | 17 kts | 252° |
| 2026-05-07 13:14 | 51.15305 | -0.17414 | 211 ft | 13 kts | 248° |
| 2026-05-07 13:14 | 51.15286 | -0.17555 | 210 ft | 13 kts | 258° |
| 2026-05-07 13:14 | 51.15268 | -0.17696 | 207 ft | 13 kts | 257° |
| 2026-05-07 13:15 | 51.15246 | -0.17855 | 205 ft | 17 kts | 257° |
| 2026-05-07 13:15 | 51.15216 | -0.18059 | 214 ft | 19 kts | 257° |
| 2026-05-07 13:15 | 51.15189 | -0.18268 | 210 ft | 19 kts | 261° |
| 2026-05-07 13:15 | 51.15166 | -0.18478 | 211 ft | 19 kts | 257° |
| 2026-05-07 13:16 | 51.15137 | -0.18688 | 205 ft | 20 kts | 258° |
| 2026-05-07 13:16 | 51.15118 | -0.18828 | 207 ft | 20 kts | 258° |
| 2026-05-07 13:16 | 51.15089 | -0.19039 | 209 ft | 19 kts | 257° |
| 2026-05-07 13:16 | 51.15060 | -0.19250 | 205 ft | 19 kts | 258° |
| 2026-05-07 13:17 | 51.15031 | -0.19460 | 205 ft | 19 kts | 258° |
| 2026-05-07 13:17 | 51.14992 | -0.19739 | 205 ft | 20 kts | 257° |
| 2026-05-07 13:17 | 51.14963 | -0.19952 | 205 ft | 20 kts | 258° |
| 2026-05-07 13:17 | 51.14944 | -0.20098 | 205 ft | 20 kts | 257° |
| 2026-05-07 13:18 | 51.14913 | -0.20314 | 213 ft | 20 kts | 257° |
| 2026-05-07 13:18 | 51.14883 | -0.20532 | 210 ft | 20 kts | 257° |
| 2026-05-07 13:18 | 51.14852 | -0.20749 | 210 ft | 20 kts | 257° |
| 2026-05-07 13:18 | 51.14822 | -0.20966 | 211 ft | 20 kts | 257° |
| 2026-05-07 13:19 | 51.14788 | -0.21178 | 211 ft | 20 kts | 252° |
| 2026-05-07 13:19 | 51.14764 | -0.21325 | 209 ft | 11 kts | 256° |
| 2026-05-07 13:19 | 51.14722 | -0.21403 | 215 ft | 9 kts | 176° |
| 2026-05-07 13:19 | 51.14664 | -0.21362 | 217 ft | 9 kts | 141° |
| 2026-05-07 13:20 | 51.14603 | -0.21323 | 210 ft | 11 kts | 166° |
| 2026-05-07 13:20 | 51.14529 | -0.21241 | 215 ft | 14 kts | 120° |
| 2026-05-07 13:20 | 51.14531 | -0.21090 | 210 ft | 17 kts | 77° |
| 2026-05-07 13:20 | 51.14606 | -0.20533 | 211 ft | 86 kts | 78° |
| 2026-05-07 13:21 | 51.14780 | -0.19274 | 208 ft | 145 kts | 78° |
| 2026-05-07 13:21 | 51.15029 | -0.17483 | 419 ft | 174 kts | 78° |
| 2026-05-07 13:21 | 51.15288 | -0.15624 | 1257 ft | 170 kts | 78° |
| 2026-05-07 13:21 | 51.15549 | -0.13737 | 1802 ft | 180 kts | 78° |
| 2026-05-07 13:22 | 51.15829 | -0.11673 | 1999 ft | 201 kts | 78° |
| 2026-05-07 13:22 | 51.16142 | -0.09376 | 2133 ft | 223 kts | 78° |
| 2026-05-07 13:22 | 51.16489 | -0.06831 | 2278 ft | 248 kts | 78° |
| 2026-05-07 13:22 | 51.16845 | -0.04068 | 2735 ft | 258 kts | 84° |
| 2026-05-07 13:23 | 51.16891 | -0.02607 | 3045 ft | 260 kts | 91° |
| 2026-05-07 13:23 | 51.16862 | 0.00286 | 3731 ft | 263 kts | 92° |
| 2026-05-07 13:23 | 51.16807 | 0.03214 | 4410 ft | 265 kts | 92° |
| 2026-05-07 13:23 | 51.16744 | 0.06122 | 5086 ft | 268 kts | 92° |
| 2026-05-07 13:24 | 51.16677 | 0.09108 | 5760 ft | 270 kts | 92° |
| 2026-05-07 13:24 | 51.16616 | 0.12100 | 6448 ft | 272 kts | 92° |
| 2026-05-07 13:24 | 51.16560 | 0.15138 | 6937 ft | 274 kts | 92° |
| 2026-05-07 13:24 | 51.16530 | 0.18190 | 7532 ft | 277 kts | 91° |
| 2026-05-07 13:25 | 51.16531 | 0.21279 | 8138 ft | 280 kts | 91° |
| 2026-05-07 13:25 | 51.16541 | 0.24402 | 8742 ft | 283 kts | 90° |
| 2026-05-07 13:25 | 51.16554 | 0.27552 | 9341 ft | 286 kts | 90° |
| 2026-05-07 13:25 | 51.16566 | 0.30740 | 9941 ft | 289 kts | 91° |
| 2026-05-07 13:26 | 51.16578 | 0.33955 | 10475 ft | 292 kts | 90° |
| 2026-05-07 13:26 | 51.16588 | 0.37204 | 11031 ft | 294 kts | 91° |
| 2026-05-07 13:26 | 51.16594 | 0.40476 | 11584 ft | 296 kts | 91° |
| 2026-05-07 13:26 | 51.16597 | 0.43773 | 12144 ft | 299 kts | 91° |
| 2026-05-07 13:27 | 51.16599 | 0.47102 | 12704 ft | 301 kts | 91° |
| 2026-05-07 13:27 | 51.16599 | 0.50470 | 13101 ft | 311 kts | 91° |
| 2026-05-07 13:27 | 51.16596 | 0.54010 | 13240 ft | 327 kts | 91° |
| 2026-05-07 13:27 | 51.16592 | 0.57718 | 13383 ft | 342 kts | 91° |
| 2026-05-07 13:28 | 51.16587 | 0.61594 | 13542 ft | 357 kts | 91° |
| 2026-05-07 13:28 | 51.16581 | 0.65590 | 13872 ft | 364 kts | 91° |
| 2026-05-07 13:28 | 51.16573 | 0.69649 | 14305 ft | 368 kts | 91° |
| 2026-05-07 13:28 | 51.16563 | 0.73693 | 14750 ft | 371 kts | 91° |
| 2026-05-07 13:29 | 51.16555 | 0.77818 | 15210 ft | 374 kts | 91° |
| 2026-05-07 13:29 | 51.16546 | 0.81993 | 15748 ft | 378 kts | 91° |
| 2026-05-07 13:29 | 51.16534 | 0.86196 | 16187 ft | 381 kts | 91° |
| 2026-05-07 13:29 | 51.16521 | 0.90429 | 16628 ft | 383 kts | 91° |
| 2026-05-07 13:30 | 51.16506 | 0.94710 | 17070 ft | 386 kts | 91° |
| 2026-05-07 13:30 | 51.16486 | 0.99003 | 17499 ft | 389 kts | 91° |
| 2026-05-07 13:30 | 51.16464 | 1.03330 | 17934 ft | 392 kts | 91° |
| 2026-05-07 13:30 | 51.16441 | 1.07694 | 18349 ft | 395 kts | 91° |
| 2026-05-07 13:31 | 51.16417 | 1.12081 | 18716 ft | 397 kts | 91° |
| 2026-05-07 13:31 | 51.16392 | 1.16439 | 19066 ft | 400 kts | 91° |
| 2026-05-07 13:31 | 51.16367 | 1.20939 | 19431 ft | 402 kts | 91° |
| 2026-05-07 13:31 | 51.16339 | 1.25352 | 19781 ft | 404 kts | 91° |
| 2026-05-07 13:32 | 51.16309 | 1.29844 | 20157 ft | 406 kts | 91° |
| 2026-05-07 13:32 | 51.16277 | 1.34353 | 20516 ft | 409 kts | 91° |
| 2026-05-07 13:32 | 51.16204 | 1.38896 | 20866 ft | 411 kts | 93° |
| 2026-05-07 13:32 | 51.16037 | 1.43448 | 21212 ft | 413 kts | 95° |
| 2026-05-07 13:33 | 51.15804 | 1.48020 | 21552 ft | 415 kts | 96° |
| 2026-05-07 13:33 | 51.15542 | 1.52612 | 21898 ft | 417 kts | 96° |
| 2026-05-07 13:33 | 51.15273 | 1.57222 | 22231 ft | 419 kts | 96° |
| 2026-05-07 13:33 | 51.15014 | 1.61855 | 22575 ft | 421 kts | 96° |
| 2026-05-07 13:34 | 51.14767 | 1.66522 | 22914 ft | 424 kts | 95° |
| 2026-05-07 13:34 | 51.14298 | 1.75921 | 23578 ft | 428 kts | 95° |
| 2026-05-07 13:34 | 51.14071 | 1.80596 | 23857 ft | 430 kts | 95° |
| 2026-05-07 13:35 | 51.13839 | 1.85351 | 24137 ft | 432 kts | 95° |
| 2026-05-07 13:35 | 51.13599 | 1.90122 | 24420 ft | 434 kts | 95° |
| 2026-05-07 13:35 | 51.13348 | 1.94955 | 24709 ft | 435 kts | 96° |
| 2026-05-07 13:35 | 51.13092 | 1.99795 | 24981 ft | 437 kts | 96° |
| 2026-05-07 13:36 | 51.12838 | 2.04559 | 25253 ft | 439 kts | 96° |
| 2026-05-07 13:36 | 51.12575 | 2.09471 | 25525 ft | 440 kts | 96° |
| 2026-05-07 13:36 | 51.12312 | 2.14334 | 25792 ft | 442 kts | 96° |
| 2026-05-07 13:36 | 51.12046 | 2.19223 | 26061 ft | 444 kts | 96° |
| 2026-05-07 13:37 | 51.11786 | 2.24058 | 26325 ft | 446 kts | 96° |
| 2026-05-07 13:37 | 51.11521 | 2.28978 | 26580 ft | 447 kts | 96° |
| 2026-05-07 13:37 | 51.11251 | 2.33924 | 26841 ft | 449 kts | 96° |
| 2026-05-07 13:37 | 51.10976 | 2.38882 | 27102 ft | 451 kts | 96° |
| 2026-05-07 13:38 | 51.10696 | 2.43860 | 27355 ft | 452 kts | 96° |
| 2026-05-07 13:38 | 51.10413 | 2.48850 | 27612 ft | 454 kts | 96° |
| 2026-05-07 13:38 | 51.10124 | 2.53858 | 27864 ft | 456 kts | 96° |
| 2026-05-07 13:38 | 51.09833 | 2.58895 | 28116 ft | 457 kts | 96° |
| 2026-05-07 13:39 | 51.09505 | 2.63933 | 28360 ft | 458 kts | 100° |
| 2026-05-07 13:39 | 51.08815 | 2.68885 | 28588 ft | 459 kts | 107° |
| 2026-05-07 13:39 | 51.07935 | 2.73767 | 28814 ft | 460 kts | 107° |
| 2026-05-07 13:39 | 51.07045 | 2.78663 | 29033 ft | 462 kts | 107° |
| 2026-05-07 13:40 | 51.06150 | 2.83577 | 29245 ft | 463 kts | 107° |
| 2026-05-07 13:40 | 51.05253 | 2.88494 | 29453 ft | 465 kts | 107° |
| 2026-05-07 13:40 | 51.04350 | 2.93441 | 29651 ft | 466 kts | 107° |
| 2026-05-07 13:40 | 51.03446 | 2.98395 | 29917 ft | 466 kts | 107° |
| 2026-05-07 13:41 | 51.02544 | 3.03327 | 30203 ft | 465 kts | 107° |
| 2026-05-07 13:41 | 51.01649 | 3.08193 | 30433 ft | 464 kts | 107° |
| 2026-05-07 13:41 | 51.00741 | 3.13111 | 30663 ft | 464 kts | 108° |
| 2026-05-07 13:41 | 50.99828 | 3.18025 | 30880 ft | 464 kts | 108° |
| 2026-05-07 13:42 | 50.98913 | 3.22943 | 31100 ft | 463 kts | 108° |
| 2026-05-07 13:42 | 50.98001 | 3.27851 | 31316 ft | 463 kts | 108° |
| 2026-05-07 13:42 | 50.97091 | 3.32753 | 31518 ft | 463 kts | 108° |
| 2026-05-07 13:42 | 50.96180 | 3.37652 | 31744 ft | 462 kts | 108° |
| 2026-05-07 13:43 | 50.95268 | 3.42537 | 31953 ft | 462 kts | 108° |
| 2026-05-07 13:43 | 50.94348 | 3.47421 | 32173 ft | 462 kts | 108° |
| 2026-05-07 13:43 | 50.93425 | 3.52303 | 32377 ft | 462 kts | 108° |
| 2026-05-07 13:43 | 50.92501 | 3.57177 | 32571 ft | 462 kts | 108° |
| 2026-05-07 13:44 | 50.91577 | 3.62065 | 32776 ft | 461 kts | 108° |
| 2026-05-07 13:44 | 50.90660 | 3.66921 | 32973 ft | 461 kts | 108° |
| 2026-05-07 13:44 | 50.89752 | 3.71721 | 33069 ft | 460 kts | 108° |
| 2026-05-07 13:45 | 50.87900 | 3.81411 | 33077 ft | 458 kts | 108° |
| 2026-05-07 13:45 | 50.86045 | 3.91061 | 33080 ft | 458 kts | 108° |
| 2026-05-07 13:46 | 50.84184 | 4.00696 | 33079 ft | 458 kts | 108° |
| 2026-05-07 13:46 | 50.82696 | 4.08358 | 33079 ft | 458 kts | 108° |
| 2026-05-07 13:47 | 50.80935 | 4.17437 | 33082 ft | 458 kts | 108° |
| 2026-05-07 13:47 | 50.79059 | 4.27055 | 33082 ft | 458 kts | 108° |
| 2026-05-07 13:48 | 50.77176 | 4.36611 | 33085 ft | 458 kts | 108° |
| 2026-05-07 13:48 | 50.75273 | 4.46229 | 33088 ft | 459 kts | 109° |
| 2026-05-07 13:49 | 50.73364 | 4.55841 | 33095 ft | 459 kts | 109° |
| 2026-05-07 13:49 | 50.71451 | 4.65455 | 33082 ft | 458 kts | 109° |
| 2026-05-07 13:50 | 50.69531 | 4.75042 | 33101 ft | 459 kts | 109° |
| 2026-05-07 13:50 | 50.67590 | 4.84651 | 33092 ft | 459 kts | 109° |
| 2026-05-07 13:51 | 50.65647 | 4.94227 | 33079 ft | 459 kts | 109° |
| 2026-05-07 13:51 | 50.63694 | 5.03794 | 33093 ft | 459 kts | 109° |
| 2026-05-07 13:52 | 50.61724 | 5.13347 | 33093 ft | 459 kts | 109° |
| 2026-05-07 13:52 | 50.59743 | 5.22901 | 33096 ft | 459 kts | 109° |
| 2026-05-07 13:53 | 50.57771 | 5.32376 | 33091 ft | 459 kts | 109° |
| 2026-05-07 13:53 | 50.55779 | 5.41917 | 33102 ft | 459 kts | 109° |
| 2026-05-07 13:54 | 50.53779 | 5.51444 | 33102 ft | 458 kts | 109° |
| 2026-05-07 13:54 | 50.51767 | 5.60963 | 33090 ft | 458 kts | 109° |
| 2026-05-07 13:55 | 50.49317 | 5.70172 | 33087 ft | 458 kts | 114° |
| 2026-05-07 13:55 | 50.46778 | 5.79342 | 33073 ft | 458 kts | 114° |
| 2026-05-07 13:56 | 50.44234 | 5.88513 | 33067 ft | 458 kts | 114° |
| 2026-05-07 13:56 | 50.41680 | 5.97657 | 33061 ft | 458 kts | 114° |
| 2026-05-07 13:57 | 50.39135 | 6.06758 | 33060 ft | 458 kts | 114° |
| 2026-05-07 13:57 | 50.36563 | 6.15890 | 33061 ft | 458 kts | 114° |
| 2026-05-07 13:58 | 50.33987 | 6.25017 | 33048 ft | 458 kts | 114° |
| 2026-05-07 13:58 | 50.31401 | 6.34140 | 33057 ft | 458 kts | 114° |
| 2026-05-07 13:59 | 50.28815 | 6.43243 | 33052 ft | 458 kts | 114° |
| 2026-05-07 13:59 | 50.26217 | 6.52334 | 33045 ft | 458 kts | 114° |
| 2026-05-07 14:00 | 50.23603 | 6.61413 | 33058 ft | 458 kts | 114° |
| 2026-05-07 14:00 | 50.20987 | 6.70484 | 33059 ft | 458 kts | 114° |
| 2026-05-07 14:01 | 50.18368 | 6.79554 | 33063 ft | 458 kts | 114° |
| 2026-05-07 14:01 | 50.15765 | 6.88539 | 33075 ft | 458 kts | 114° |
| 2026-05-07 14:02 | 50.13133 | 6.97573 | 33065 ft | 457 kts | 114° |
| 2026-05-07 14:02 | 50.10500 | 7.06601 | 33070 ft | 457 kts | 114° |
| 2026-05-07 14:03 | 50.07859 | 7.15610 | 33076 ft | 457 kts | 115° |
| 2026-05-07 14:03 | 50.05203 | 7.24627 | 33078 ft | 458 kts | 115° |
| 2026-05-07 14:04 | 50.02545 | 7.33616 | 33075 ft | 457 kts | 115° |
| 2026-05-07 14:04 | 49.99882 | 7.42589 | 33068 ft | 457 kts | 115° |
| 2026-05-07 14:05 | 49.97665 | 7.50042 | 33065 ft | 457 kts | 115° |
| 2026-05-07 14:05 | 49.94989 | 7.59003 | 33060 ft | 457 kts | 115° |
| 2026-05-07 14:06 | 49.92306 | 7.67948 | 33062 ft | 457 kts | 115° |
| 2026-05-07 14:06 | 49.89616 | 7.76897 | 33057 ft | 457 kts | 115° |
| 2026-05-07 14:07 | 49.86923 | 7.85817 | 33054 ft | 457 kts | 115° |
| 2026-05-07 14:07 | 49.84216 | 7.94754 | 33058 ft | 457 kts | 115° |
| 2026-05-07 14:08 | 49.81509 | 8.03649 | 33057 ft | 457 kts | 115° |
| 2026-05-07 14:08 | 49.78815 | 8.12483 | 33060 ft | 457 kts | 115° |
| 2026-05-07 14:09 | 49.76094 | 8.21368 | 33057 ft | 457 kts | 116° |
| 2026-05-07 14:09 | 49.73360 | 8.30240 | 33057 ft | 457 kts | 116° |
| 2026-05-07 14:10 | 49.70621 | 8.39126 | 33074 ft | 457 kts | 116° |
| 2026-05-07 14:10 | 49.67882 | 8.47982 | 33073 ft | 457 kts | 116° |
| 2026-05-07 14:11 | 49.65128 | 8.56831 | 33066 ft | 457 kts | 116° |
| 2026-05-07 14:11 | 49.62362 | 8.65668 | 33078 ft | 457 kts | 116° |
| 2026-05-07 14:12 | 49.59617 | 8.74456 | 33069 ft | 457 kts | 116° |
| 2026-05-07 14:12 | 49.56847 | 8.83285 | 33061 ft | 457 kts | 116° |
| 2026-05-07 14:13 | 49.54062 | 8.92095 | 33065 ft | 458 kts | 116° |
| 2026-05-07 14:13 | 49.51278 | 9.00895 | 33068 ft | 458 kts | 116° |
| 2026-05-07 14:14 | 49.48481 | 9.09710 | 33053 ft | 458 kts | 116° |
| 2026-05-07 14:14 | 49.45447 | 9.18302 | 33045 ft | 457 kts | 124° |
| 2026-05-07 14:15 | 49.41954 | 9.26477 | 33048 ft | 457 kts | 124° |
| 2026-05-07 14:15 | 49.38472 | 9.34647 | 33043 ft | 457 kts | 124° |
| 2026-05-07 14:16 | 49.34982 | 9.42828 | 33056 ft | 458 kts | 124° |
| 2026-05-07 14:16 | 49.31487 | 9.50985 | 33064 ft | 458 kts | 124° |
| 2026-05-07 14:17 | 49.27982 | 9.59124 | 33068 ft | 458 kts | 124° |
| 2026-05-07 14:17 | 49.24461 | 9.67267 | 33055 ft | 458 kts | 124° |
| 2026-05-07 14:18 | 49.20967 | 9.75338 | 33076 ft | 458 kts | 124° |
| 2026-05-07 14:18 | 49.17439 | 9.83470 | 33077 ft | 458 kts | 124° |
| 2026-05-07 14:19 | 49.13904 | 9.91586 | 33068 ft | 459 kts | 124° |
| 2026-05-07 14:19 | 49.10362 | 9.99684 | 33066 ft | 459 kts | 124° |
| 2026-05-07 14:20 | 49.06776 | 10.07742 | 33068 ft | 459 kts | 129° |
| 2026-05-07 14:20 | 49.02416 | 10.14795 | 33054 ft | 457 kts | 136° |
| 2026-05-07 14:21 | 48.97904 | 10.21636 | 33066 ft | 458 kts | 136° |
| 2026-05-07 14:21 | 48.93399 | 10.28491 | 33066 ft | 458 kts | 136° |
| 2026-05-07 14:22 | 48.88880 | 10.35340 | 33058 ft | 458 kts | 136° |
| 2026-05-07 14:22 | 48.84354 | 10.42156 | 33068 ft | 458 kts | 137° |
| 2026-05-07 14:23 | 48.79815 | 10.48976 | 33069 ft | 459 kts | 137° |
| 2026-05-07 14:23 | 48.75277 | 10.55783 | 33061 ft | 459 kts | 137° |
| 2026-05-07 14:24 | 48.70764 | 10.62525 | 33059 ft | 459 kts | 137° |
| 2026-05-07 14:24 | 48.66213 | 10.69306 | 33060 ft | 459 kts | 137° |
| 2026-05-07 14:25 | 48.61653 | 10.76094 | 33027 ft | 460 kts | 137° |
| 2026-05-07 14:25 | 48.57277 | 10.83179 | 33016 ft | 464 kts | 130° |
| 2026-05-07 14:26 | 48.53214 | 10.90752 | 33008 ft | 465 kts | 130° |
| 2026-05-07 14:26 | 48.49122 | 10.98339 | 33016 ft | 467 kts | 130° |
| 2026-05-07 14:27 | 48.45009 | 11.05955 | 32995 ft | 469 kts | 131° |
| 2026-05-07 14:27 | 48.40875 | 11.13574 | 33007 ft | 471 kts | 131° |
| 2026-05-07 14:28 | 48.36715 | 11.21209 | 33011 ft | 472 kts | 131° |
| 2026-05-07 14:28 | 48.32543 | 11.28843 | 33022 ft | 472 kts | 131° |
| 2026-05-07 14:29 | 48.28390 | 11.36437 | 33041 ft | 472 kts | 131° |
| 2026-05-07 14:29 | 48.24216 | 11.44052 | 33042 ft | 472 kts | 131° |
| 2026-05-07 14:30 | 48.20034 | 11.51651 | 33045 ft | 472 kts | 131° |
| 2026-05-07 14:30 | 48.15878 | 11.59182 | 33046 ft | 472 kts | 131° |
| 2026-05-07 14:31 | 48.11685 | 11.66747 | 33042 ft | 472 kts | 132° |
| 2026-05-07 14:31 | 48.07495 | 11.74298 | 33041 ft | 472 kts | 132° |
| 2026-05-07 14:32 | 48.03303 | 11.81834 | 33035 ft | 471 kts | 132° |
| 2026-05-07 14:32 | 47.99107 | 11.89352 | 33035 ft | 471 kts | 132° |
| 2026-05-07 14:33 | 47.94912 | 11.96861 | 33031 ft | 471 kts | 133° |
| 2026-05-07 14:33 | 47.90710 | 12.04352 | 33036 ft | 471 kts | 133° |
| 2026-05-07 14:34 | 47.86505 | 12.11823 | 33032 ft | 470 kts | 133° |
| 2026-05-07 14:34 | 47.82324 | 12.19226 | 33032 ft | 470 kts | 133° |
| 2026-05-07 14:35 | 47.78106 | 12.26682 | 33036 ft | 470 kts | 133° |
| 2026-05-07 14:35 | 47.73892 | 12.34117 | 33039 ft | 470 kts | 133° |
| 2026-05-07 14:36 | 47.69668 | 12.41536 | 33039 ft | 470 kts | 133° |
| 2026-05-07 14:36 | 47.65437 | 12.48947 | 33038 ft | 470 kts | 134° |
| 2026-05-07 14:37 | 47.61036 | 12.56082 | 33033 ft | 467 kts | 141° |
| 2026-05-07 14:37 | 47.53918 | 12.65864 | 33026 ft | 467 kts | 141° |
| 2026-05-07 14:38 | 47.49150 | 12.72373 | 33028 ft | 467 kts | 141° |
| 2026-05-07 14:38 | 47.44382 | 12.78869 | 33029 ft | 466 kts | 141° |
| 2026-05-07 14:39 | 47.39608 | 12.85377 | 33027 ft | 467 kts | 141° |
| 2026-05-07 14:39 | 47.34847 | 12.91873 | 33024 ft | 467 kts | 141° |
| 2026-05-07 14:40 | 47.30066 | 12.98358 | 33025 ft | 467 kts | 141° |
| 2026-05-07 14:40 | 47.25283 | 13.04831 | 33015 ft | 467 kts | 141° |
| 2026-05-07 14:41 | 47.20499 | 13.11296 | 33008 ft | 467 kts | 141° |
| 2026-05-07 14:41 | 47.15692 | 13.17765 | 33011 ft | 468 kts | 141° |
| 2026-05-07 14:42 | 47.10912 | 13.24179 | 33008 ft | 468 kts | 142° |
| 2026-05-07 14:42 | 47.06104 | 13.30618 | 33001 ft | 468 kts | 142° |
| 2026-05-07 14:43 | 47.01286 | 13.37054 | 32992 ft | 468 kts | 142° |
| 2026-05-07 14:43 | 46.96467 | 13.43481 | 32984 ft | 469 kts | 142° |
| 2026-05-07 14:44 | 46.91632 | 13.49904 | 32983 ft | 468 kts | 142° |
| 2026-05-07 14:44 | 46.86800 | 13.56295 | 32973 ft | 468 kts | 143° |
| 2026-05-07 14:45 | 46.81964 | 13.62678 | 32967 ft | 469 kts | 143° |
| 2026-05-07 14:45 | 46.77128 | 13.69055 | 32957 ft | 468 kts | 143° |
| 2026-05-07 14:46 | 46.72294 | 13.75414 | 32940 ft | 467 kts | 143° |
| 2026-05-07 14:46 | 46.67460 | 13.81765 | 32944 ft | 468 kts | 143° |
| 2026-05-07 14:47 | 46.62616 | 13.88101 | 32937 ft | 469 kts | 144° |
| 2026-05-07 14:47 | 46.57840 | 13.94342 | 32935 ft | 469 kts | 144° |
| 2026-05-07 14:48 | 46.52990 | 14.00669 | 32934 ft | 469 kts | 144° |
| 2026-05-07 14:48 | 46.48130 | 14.06988 | 32938 ft | 469 kts | 144° |
| 2026-05-07 14:49 | 46.43264 | 14.13283 | 32945 ft | 469 kts | 144° |
| 2026-05-07 14:49 | 46.38427 | 14.19534 | 32952 ft | 468 kts | 144° |
| 2026-05-07 14:50 | 46.33566 | 14.25805 | 32958 ft | 468 kts | 145° |
| 2026-05-07 14:50 | 46.28707 | 14.32055 | 32960 ft | 467 kts | 145° |
| 2026-05-07 14:51 | 46.24080 | 14.38717 | 32960 ft | 474 kts | 138° |
| 2026-05-07 14:51 | 46.19709 | 14.45835 | 32956 ft | 473 kts | 138° |
| 2026-05-07 14:52 | 46.16069 | 14.51748 | 32963 ft | 473 kts | 139° |
| 2026-05-07 14:52 | 46.11691 | 14.58828 | 32959 ft | 473 kts | 139° |
| 2026-05-07 14:53 | 46.07308 | 14.65893 | 32963 ft | 472 kts | 139° |
| 2026-05-07 14:53 | 46.02931 | 14.72947 | 32967 ft | 472 kts | 139° |
| 2026-05-07 14:54 | 45.98549 | 14.79990 | 32987 ft | 472 kts | 139° |
| 2026-05-07 14:54 | 45.94159 | 14.87016 | 32975 ft | 472 kts | 139° |
| 2026-05-07 14:55 | 45.89763 | 14.94020 | 32988 ft | 472 kts | 139° |
| 2026-05-07 14:55 | 45.85220 | 15.00774 | 32981 ft | 469 kts | 142° |
| 2026-05-07 14:56 | 45.80497 | 15.07196 | 32979 ft | 467 kts | 143° |
| 2026-05-07 14:56 | 45.75758 | 15.13596 | 32984 ft | 469 kts | 143° |
| 2026-05-07 14:57 | 45.71064 | 15.20077 | 32986 ft | 469 kts | 142° |
| 2026-05-07 14:57 | 45.66412 | 15.26561 | 32986 ft | 470 kts | 142° |
| 2026-05-07 14:58 | 45.61697 | 15.33105 | 32987 ft | 470 kts | 143° |
| 2026-05-07 14:58 | 45.57021 | 15.39539 | 32996 ft | 470 kts | 143° |
| 2026-05-07 14:59 | 45.52302 | 15.46002 | 33003 ft | 470 kts | 143° |
| 2026-05-07 14:59 | 45.47585 | 15.52451 | 33003 ft | 470 kts | 143° |
| 2026-05-07 15:00 | 45.42881 | 15.58928 | 33006 ft | 471 kts | 142° |
| 2026-05-07 15:00 | 45.38348 | 15.65714 | 33008 ft | 474 kts | 139° |
| 2026-05-07 15:01 | 45.33913 | 15.72668 | 33009 ft | 474 kts | 139° |
| 2026-05-07 15:01 | 45.29443 | 15.79562 | 33009 ft | 474 kts | 140° |
| 2026-05-07 15:02 | 45.24917 | 15.86379 | 33010 ft | 474 kts | 140° |
| 2026-05-07 15:02 | 45.20375 | 15.93174 | 33021 ft | 475 kts | 140° |
| 2026-05-07 15:03 | 45.15837 | 15.99998 | 33022 ft | 476 kts | 140° |
| 2026-05-07 15:03 | 45.11300 | 16.06831 | 33020 ft | 476 kts | 140° |
| 2026-05-07 15:04 | 45.06744 | 16.13659 | 33016 ft | 477 kts | 140° |
| 2026-05-07 15:04 | 45.02208 | 16.20420 | 33013 ft | 477 kts | 139° |
| 2026-05-07 15:05 | 44.97630 | 16.27226 | 33019 ft | 477 kts | 139° |
| 2026-05-07 15:05 | 44.93056 | 16.34015 | 33023 ft | 477 kts | 139° |
| 2026-05-07 15:06 | 44.88469 | 16.40805 | 33026 ft | 478 kts | 139° |
| 2026-05-07 15:06 | 44.83880 | 16.47585 | 33025 ft | 478 kts | 139° |
| 2026-05-07 15:07 | 44.79292 | 16.54352 | 33022 ft | 477 kts | 139° |
| 2026-05-07 15:07 | 44.74727 | 16.61058 | 33023 ft | 478 kts | 139° |
| 2026-05-07 15:08 | 44.70126 | 16.67804 | 33039 ft | 478 kts | 139° |
| 2026-05-07 15:08 | 44.65518 | 16.74552 | 33038 ft | 478 kts | 139° |
| 2026-05-07 15:09 | 44.60906 | 16.81286 | 33041 ft | 478 kts | 139° |
| 2026-05-07 15:09 | 44.56295 | 16.87999 | 33050 ft | 478 kts | 139° |
| 2026-05-07 15:10 | 44.51614 | 16.94601 | 33056 ft | 476 kts | 142° |
| 2026-05-07 15:10 | 44.46781 | 17.00920 | 33056 ft | 475 kts | 143° |
| 2026-05-07 15:11 | 44.41919 | 17.07182 | 33062 ft | 475 kts | 142° |
| 2026-05-07 15:11 | 44.37123 | 17.13459 | 33067 ft | 475 kts | 142° |
| 2026-05-07 15:12 | 44.32318 | 17.19797 | 33070 ft | 474 kts | 142° |
| 2026-05-07 15:12 | 44.27513 | 17.26110 | 33075 ft | 474 kts | 142° |
| 2026-05-07 15:13 | 44.22704 | 17.32392 | 33078 ft | 474 kts | 142° |
| 2026-05-07 15:13 | 44.17881 | 17.38652 | 33079 ft | 474 kts | 142° |
| 2026-05-07 15:14 | 44.13050 | 17.44911 | 33079 ft | 474 kts | 142° |
| 2026-05-07 15:14 | 44.08230 | 17.51160 | 33082 ft | 474 kts | 142° |
| 2026-05-07 15:15 | 44.03396 | 17.57424 | 33078 ft | 475 kts | 143° |
| 2026-05-07 15:15 | 43.98553 | 17.63677 | 33073 ft | 475 kts | 143° |
| 2026-05-07 15:16 | 43.93734 | 17.69874 | 33073 ft | 476 kts | 143° |
| 2026-05-07 15:16 | 43.88869 | 17.76118 | 33070 ft | 477 kts | 143° |
| 2026-05-07 15:17 | 43.83993 | 17.82360 | 33073 ft | 478 kts | 143° |
| 2026-05-07 15:17 | 43.79124 | 17.88643 | 33072 ft | 479 kts | 142° |
| 2026-05-07 15:18 | 43.74356 | 17.95121 | 33074 ft | 481 kts | 141° |
| 2026-05-07 15:18 | 43.69616 | 18.01657 | 33073 ft | 482 kts | 141° |
| 2026-05-07 15:19 | 43.64869 | 18.08104 | 33078 ft | 482 kts | 141° |
| 2026-05-07 15:19 | 43.60051 | 18.14562 | 33076 ft | 483 kts | 141° |
| 2026-05-07 15:20 | 43.55273 | 18.21080 | 33080 ft | 484 kts | 140° |
| 2026-05-07 15:20 | 43.50565 | 18.27725 | 33085 ft | 485 kts | 140° |
| 2026-05-07 15:21 | 43.45854 | 18.34391 | 33086 ft | 485 kts | 140° |
| 2026-05-07 15:21 | 43.41111 | 18.41016 | 33087 ft | 486 kts | 140° |
| 2026-05-07 15:22 | 43.36376 | 18.47573 | 33089 ft | 486 kts | 140° |
| 2026-05-07 15:22 | 43.31605 | 18.54174 | 33096 ft | 487 kts | 140° |
| 2026-05-07 15:23 | 43.26825 | 18.60783 | 33098 ft | 487 kts | 140° |
| 2026-05-07 15:23 | 43.22052 | 18.67371 | 33094 ft | 487 kts | 140° |
| 2026-05-07 15:24 | 43.17272 | 18.73956 | 33100 ft | 488 kts | 140° |
| 2026-05-07 15:24 | 43.12481 | 18.80532 | 33089 ft | 487 kts | 139° |
| 2026-05-07 15:25 | 43.07674 | 18.87111 | 33093 ft | 488 kts | 140° |
| 2026-05-07 15:25 | 43.02870 | 18.93672 | 33097 ft | 488 kts | 139° |
| 2026-05-07 15:26 | 42.98058 | 19.00241 | 33094 ft | 488 kts | 140° |
| 2026-05-07 15:26 | 42.93285 | 19.06737 | 33102 ft | 488 kts | 139° |
| 2026-05-07 15:27 | 42.88467 | 19.13277 | 33111 ft | 488 kts | 139° |
| 2026-05-07 15:27 | 42.83636 | 19.19806 | 33104 ft | 488 kts | 139° |
| 2026-05-07 15:28 | 42.78802 | 19.26322 | 33108 ft | 489 kts | 139° |
| 2026-05-07 15:28 | 42.73973 | 19.32839 | 33109 ft | 489 kts | 139° |
| 2026-05-07 15:29 | 42.69145 | 19.39347 | 33109 ft | 488 kts | 139° |
| 2026-05-07 15:29 | 42.64315 | 19.45829 | 33113 ft | 488 kts | 139° |
| 2026-05-07 15:30 | 42.59496 | 19.52261 | 33105 ft | 488 kts | 139° |
| 2026-05-07 15:30 | 42.54652 | 19.58719 | 33102 ft | 488 kts | 139° |
| 2026-05-07 15:31 | 42.49512 | 19.64658 | 33104 ft | 485 kts | 145° |
| 2026-05-07 15:31 | 42.44210 | 19.70276 | 33103 ft | 484 kts | 147° |
| 2026-05-07 15:32 | 42.38823 | 19.75753 | 33108 ft | 484 kts | 147° |
| 2026-05-07 15:32 | 42.33431 | 19.81224 | 33117 ft | 484 kts | 147° |
| 2026-05-07 15:33 | 42.28064 | 19.86730 | 33097 ft | 484 kts | 147° |
| 2026-05-07 15:33 | 42.22696 | 19.92249 | 33102 ft | 485 kts | 147° |
| 2026-05-07 15:34 | 42.17322 | 19.97752 | 33101 ft | 485 kts | 147° |
| 2026-05-07 15:34 | 42.11930 | 20.03245 | 33094 ft | 485 kts | 147° |
| 2026-05-07 15:35 | 42.06536 | 20.08727 | 33094 ft | 486 kts | 147° |
| 2026-05-07 15:35 | 42.01135 | 20.14210 | 33092 ft | 486 kts | 147° |
| 2026-05-07 15:36 | 41.95763 | 20.19649 | 33092 ft | 486 kts | 147° |
| 2026-05-07 15:36 | 41.90360 | 20.25115 | 33095 ft | 487 kts | 147° |
| 2026-05-07 15:37 | 41.84934 | 20.30586 | 33089 ft | 487 kts | 147° |
| 2026-05-07 15:37 | 41.79512 | 20.36039 | 33087 ft | 488 kts | 147° |
| 2026-05-07 15:38 | 41.74077 | 20.41501 | 33094 ft | 489 kts | 147° |
| 2026-05-07 15:38 | 41.68625 | 20.46966 | 33095 ft | 489 kts | 148° |
| 2026-05-07 15:39 | 41.63196 | 20.52387 | 33069 ft | 490 kts | 148° |
| 2026-05-07 15:39 | 41.57721 | 20.57844 | 33089 ft | 490 kts | 148° |
| 2026-05-07 15:40 | 41.52250 | 20.63298 | 33107 ft | 491 kts | 148° |
| 2026-05-07 15:40 | 41.46773 | 20.68727 | 33117 ft | 491 kts | 148° |
| 2026-05-07 15:41 | 41.41276 | 20.74180 | 33119 ft | 492 kts | 148° |
| 2026-05-07 15:41 | 41.36714 | 20.78707 | 33123 ft | 493 kts | 148° |
| 2026-05-07 15:42 | 41.31202 | 20.84150 | 33127 ft | 494 kts | 148° |
| 2026-05-07 15:42 | 41.25668 | 20.89595 | 33131 ft | 495 kts | 148° |
| 2026-05-07 15:43 | 41.20120 | 20.95049 | 33133 ft | 496 kts | 148° |
| 2026-05-07 15:43 | 41.14605 | 21.00455 | 33125 ft | 497 kts | 148° |
| 2026-05-07 15:44 | 41.09037 | 21.05897 | 33123 ft | 498 kts | 148° |
| 2026-05-07 15:44 | 41.03460 | 21.11346 | 33119 ft | 499 kts | 148° |
| 2026-05-07 15:45 | 40.97861 | 21.16817 | 33118 ft | 500 kts | 148° |
| 2026-05-07 15:45 | 40.92260 | 21.22267 | 33118 ft | 500 kts | 148° |
| 2026-05-07 15:46 | 40.83816 | 21.30430 | 33107 ft | 502 kts | 148° |
| 2026-05-07 15:47 | 40.78174 | 21.35898 | 33111 ft | 503 kts | 148° |
| 2026-05-07 15:47 | 40.72516 | 21.41370 | 33119 ft | 505 kts | 148° |
| 2026-05-07 15:48 | 40.66849 | 21.46831 | 33122 ft | 505 kts | 149° |
| 2026-05-07 15:48 | 40.61195 | 21.52252 | 33127 ft | 506 kts | 149° |
| 2026-05-07 15:49 | 40.55498 | 21.57702 | 33125 ft | 506 kts | 149° |
| 2026-05-07 15:49 | 40.49810 | 21.63154 | 33135 ft | 507 kts | 148° |
| 2026-05-07 15:50 | 40.44095 | 21.68615 | 33145 ft | 508 kts | 149° |
| 2026-05-07 15:50 | 40.38370 | 21.74073 | 33151 ft | 509 kts | 149° |
| 2026-05-07 15:51 | 40.32641 | 21.79524 | 33152 ft | 510 kts | 149° |
| 2026-05-07 15:51 | 40.26888 | 21.84985 | 33151 ft | 511 kts | 149° |
| 2026-05-07 15:52 | 40.21118 | 21.90449 | 33150 ft | 513 kts | 149° |
| 2026-05-07 15:52 | 40.15313 | 21.95927 | 33146 ft | 514 kts | 149° |
| 2026-05-07 15:53 | 40.09513 | 22.01385 | 33133 ft | 514 kts | 149° |
| 2026-05-07 15:53 | 40.03736 | 22.06821 | 33125 ft | 515 kts | 149° |
| 2026-05-07 15:54 | 39.97908 | 22.12296 | 33111 ft | 516 kts | 149° |
| 2026-05-07 15:54 | 39.92072 | 22.17760 | 33108 ft | 517 kts | 149° |
| 2026-05-07 15:55 | 39.86206 | 22.23236 | 33105 ft | 518 kts | 149° |
| 2026-05-07 15:55 | 39.80382 | 22.28676 | 33118 ft | 519 kts | 149° |
| 2026-05-07 15:56 | 39.74498 | 22.34153 | 33103 ft | 520 kts | 149° |
| 2026-05-07 15:56 | 39.68609 | 22.39611 | 33102 ft | 520 kts | 149° |
| 2026-05-07 15:57 | 39.62717 | 22.45072 | 33099 ft | 521 kts | 149° |
| 2026-05-07 15:57 | 39.56810 | 22.50542 | 33099 ft | 521 kts | 149° |
| 2026-05-07 15:58 | 39.50927 | 22.55972 | 33094 ft | 522 kts | 149° |
| 2026-05-07 15:58 | 39.44997 | 22.61427 | 33083 ft | 523 kts | 149° |
| 2026-05-07 15:59 | 39.39053 | 22.66888 | 33083 ft | 524 kts | 149° |
| 2026-05-07 15:59 | 39.33095 | 22.72351 | 33071 ft | 525 kts | 149° |
| 2026-05-07 16:00 | 39.27144 | 22.77795 | 33069 ft | 526 kts | 149° |
| 2026-05-07 16:00 | 39.21157 | 22.83258 | 33074 ft | 527 kts | 150° |
| 2026-05-07 16:01 | 39.15149 | 22.88720 | 33076 ft | 528 kts | 150° |
| 2026-05-07 16:01 | 39.09180 | 22.94139 | 33086 ft | 529 kts | 150° |
| 2026-05-07 16:02 | 39.03158 | 22.99611 | 33085 ft | 530 kts | 150° |
| 2026-05-07 16:02 | 38.97120 | 23.05083 | 33095 ft | 531 kts | 149° |
| 2026-05-07 16:03 | 38.91077 | 23.10546 | 33105 ft | 532 kts | 150° |
| 2026-05-07 16:03 | 38.85007 | 23.16007 | 33117 ft | 533 kts | 150° |
| 2026-05-07 16:04 | 38.78927 | 23.21474 | 33107 ft | 533 kts | 150° |
| 2026-05-07 16:04 | 38.72862 | 23.26918 | 33115 ft | 533 kts | 150° |
| 2026-05-07 16:05 | 38.66774 | 23.32369 | 33109 ft | 533 kts | 150° |
| 2026-05-07 16:05 | 38.60684 | 23.37812 | 33115 ft | 534 kts | 150° |
| 2026-05-07 16:06 | 38.54593 | 23.43246 | 33121 ft | 534 kts | 150° |
| 2026-05-07 16:06 | 38.48524 | 23.48646 | 33126 ft | 535 kts | 150° |
| 2026-05-07 16:07 | 38.42411 | 23.54070 | 33135 ft | 536 kts | 150° |
| 2026-05-07 16:07 | 38.36293 | 23.59491 | 33135 ft | 535 kts | 150° |
| 2026-05-07 16:08 | 38.30174 | 23.64908 | 33126 ft | 535 kts | 150° |
| 2026-05-07 16:08 | 38.24062 | 23.70314 | 33136 ft | 535 kts | 150° |
| 2026-05-07 16:09 | 38.17927 | 23.75713 | 33133 ft | 535 kts | 150° |
| 2026-05-07 16:09 | 38.12445 | 23.80511 | 33138 ft | 535 kts | 150° |
| 2026-05-07 16:10 | 38.07257 | 23.85059 | 33154 ft | 536 kts | 150° |
| 2026-05-07 16:10 | 38.01134 | 23.90433 | 33161 ft | 535 kts | 149° |
| 2026-05-07 16:11 | 37.95009 | 23.95786 | 33158 ft | 535 kts | 150° |
| 2026-05-07 16:11 | 37.88888 | 24.01117 | 33159 ft | 535 kts | 150° |
| 2026-05-07 16:12 | 37.82754 | 24.06461 | 33159 ft | 534 kts | 149° |
| 2026-05-07 16:12 | 37.76617 | 24.11795 | 33163 ft | 534 kts | 149° |
| 2026-05-07 16:13 | 37.70498 | 24.17098 | 33159 ft | 534 kts | 149° |
| 2026-05-07 16:13 | 37.64418 | 24.22361 | 33160 ft | 533 kts | 149° |
| 2026-05-07 16:14 | 37.58294 | 24.27637 | 33158 ft | 533 kts | 149° |
| 2026-05-07 16:14 | 37.52143 | 24.32833 | 33161 ft | 532 kts | 151° |
| 2026-05-07 16:15 | 37.45864 | 24.37754 | 33159 ft | 530 kts | 153° |
| 2026-05-07 16:15 | 37.41210 | 24.41306 | 33161 ft | 530 kts | 153° |
| 2026-05-07 16:16 | 37.34925 | 24.46152 | 33156 ft | 530 kts | 152° |
| 2026-05-07 16:16 | 37.28706 | 24.51033 | 33157 ft | 530 kts | 152° |
| 2026-05-07 16:17 | 37.22443 | 24.55958 | 33159 ft | 530 kts | 152° |
| 2026-05-07 16:17 | 37.16233 | 24.60800 | 33166 ft | 529 kts | 152° |
| 2026-05-07 16:18 | 37.09972 | 24.65662 | 33164 ft | 529 kts | 152° |
| 2026-05-07 16:18 | 37.03719 | 24.70514 | 33164 ft | 528 kts | 152° |
| 2026-05-07 16:19 | 36.97458 | 24.75349 | 33161 ft | 528 kts | 152° |
| 2026-05-07 16:19 | 36.91207 | 24.80178 | 33165 ft | 528 kts | 152° |
| 2026-05-07 16:20 | 36.84967 | 24.85014 | 33163 ft | 527 kts | 152° |
| 2026-05-07 16:20 | 36.78731 | 24.89839 | 33165 ft | 527 kts | 152° |
| 2026-05-07 16:21 | 36.72508 | 24.94643 | 33164 ft | 527 kts | 152° |
| 2026-05-07 16:21 | 36.66271 | 24.99443 | 33162 ft | 526 kts | 152° |
| 2026-05-07 16:22 | 36.60076 | 25.04179 | 33164 ft | 526 kts | 152° |
| 2026-05-07 16:22 | 36.53797 | 25.08970 | 33166 ft | 525 kts | 152° |
| 2026-05-07 16:23 | 36.47615 | 25.13691 | 33164 ft | 525 kts | 152° |
| 2026-05-07 16:23 | 36.41367 | 25.18469 | 32603 ft | 521 kts | 152° |
| 2026-05-07 16:23 | 36.38313 | 25.20796 | 31154 ft | 519 kts | 152° |
| 2026-05-07 16:24 | 36.35242 | 25.23127 | 29525 ft | 515 kts | 151° |
| 2026-05-07 16:24 | 36.32212 | 25.25426 | 28319 ft | 502 kts | 151° |
| 2026-05-07 16:24 | 36.29319 | 25.27626 | 27749 ft | 478 kts | 151° |
| 2026-05-07 16:24 | 36.26473 | 25.29785 | 26609 ft | 479 kts | 150° |
| 2026-05-07 16:25 | 36.23623 | 25.31941 | 25493 ft | 481 kts | 150° |
| 2026-05-07 16:25 | 36.20743 | 25.34115 | 24443 ft | 487 kts | 150° |
| 2026-05-07 16:25 | 36.17829 | 25.36314 | 23387 ft | 492 kts | 149° |
| 2026-05-07 16:25 | 36.14911 | 25.38519 | 22534 ft | 489 kts | 150° |
| 2026-05-07 16:26 | 36.11925 | 25.40467 | 21795 ft | 482 kts | 158° |
| 2026-05-07 16:26 | 36.08808 | 25.41909 | 21018 ft | 475 kts | 164° |
| 2026-05-07 16:26 | 36.05678 | 25.43161 | 20257 ft | 470 kts | 164° |
| 2026-05-07 16:26 | 36.03628 | 25.43983 | 19757 ft | 467 kts | 164° |
| 2026-05-07 16:27 | 35.99518 | 25.45638 | 18761 ft | 461 kts | 164° |
| 2026-05-07 16:27 | 35.96486 | 25.46860 | 17966 ft | 456 kts | 164° |
| 2026-05-07 16:27 | 35.93491 | 25.48054 | 17251 ft | 448 kts | 165° |
| 2026-05-07 16:27 | 35.90581 | 25.49344 | 16549 ft | 443 kts | 154° |
| 2026-05-07 16:28 | 35.88088 | 25.51520 | 15881 ft | 439 kts | 136° |
| 2026-05-07 16:28 | 35.86254 | 25.54486 | 15220 ft | 433 kts | 117° |
| 2026-05-07 16:28 | 35.85492 | 25.56731 | 14798 ft | 428 kts | 105° |
| 2026-05-07 16:28 | 35.85201 | 25.61444 | 14302 ft | 406 kts | 78° |
| 2026-05-07 16:29 | 35.86052 | 25.64624 | 14294 ft | 378 kts | 58° |
| 2026-05-07 16:29 | 35.87615 | 25.67061 | 14295 ft | 350 kts | 37° |
| 2026-05-07 16:29 | 35.89629 | 25.68501 | 14291 ft | 323 kts | 14° |
| 2026-05-07 16:29 | 35.91762 | 25.68812 | 14287 ft | 299 kts | 350° |
| 2026-05-07 16:30 | 35.93638 | 25.68034 | 14284 ft | 277 kts | 325° |
| 2026-05-07 16:30 | 35.94570 | 25.67026 | 14283 ft | 265 kts | 307° |
| 2026-05-07 16:30 | 35.95327 | 25.65005 | 14285 ft | 262 kts | 280° |
| 2026-05-07 16:30 | 35.95227 | 25.62763 | 14284 ft | 267 kts | 255° |
| 2026-05-07 16:31 | 35.94339 | 25.60744 | 14288 ft | 274 kts | 230° |
| 2026-05-07 16:31 | 35.92770 | 25.59384 | 14287 ft | 282 kts | 203° |
| 2026-05-07 16:31 | 35.90821 | 25.58973 | 14287 ft | 288 kts | 186° |
| 2026-05-07 16:31 | 35.88814 | 25.58851 | 14288 ft | 289 kts | 185° |
| 2026-05-07 16:32 | 35.86801 | 25.58737 | 14241 ft | 291 kts | 185° |
| 2026-05-07 16:32 | 35.84785 | 25.58623 | 14041 ft | 286 kts | 185° |
| 2026-05-07 16:32 | 35.82788 | 25.58507 | 13982 ft | 288 kts | 185° |
| 2026-05-07 16:32 | 35.80787 | 25.58384 | 13924 ft | 289 kts | 185° |
| 2026-05-07 16:33 | 35.78779 | 25.58256 | 13859 ft | 289 kts | 185° |
| 2026-05-07 16:33 | 35.76773 | 25.58133 | 13792 ft | 289 kts | 185° |
| 2026-05-07 16:33 | 35.74767 | 25.58014 | 13724 ft | 288 kts | 185° |
| 2026-05-07 16:33 | 35.72767 | 25.57892 | 13662 ft | 288 kts | 185° |
| 2026-05-07 16:34 | 35.70776 | 25.57681 | 13588 ft | 285 kts | 195° |
| 2026-05-07 16:34 | 35.68939 | 25.56840 | 13521 ft | 280 kts | 214° |
| 2026-05-07 16:34 | 35.67411 | 25.55397 | 13463 ft | 276 kts | 226° |
| 2026-05-07 16:34 | 35.65996 | 25.53805 | 13397 ft | 276 kts | 226° |
| 2026-05-07 16:35 | 35.64628 | 25.52280 | 13334 ft | 276 kts | 225° |
| 2026-05-07 16:35 | 35.63204 | 25.50697 | 13271 ft | 276 kts | 225° |
| 2026-05-07 16:35 | 35.61781 | 25.49115 | 13202 ft | 276 kts | 225° |
| 2026-05-07 16:35 | 35.60481 | 25.47423 | 12892 ft | 269 kts | 240° |
| 2026-05-07 16:36 | 35.59720 | 25.45367 | 12537 ft | 262 kts | 260° |
| 2026-05-07 16:36 | 35.59570 | 25.43169 | 12176 ft | 257 kts | 278° |
| 2026-05-07 16:36 | 35.60004 | 25.41061 | 11816 ft | 254 kts | 296° |
| 2026-05-07 16:36 | 35.60889 | 25.39202 | 11444 ft | 252 kts | 303° |
| 2026-05-07 16:37 | 35.61788 | 25.37343 | 11088 ft | 253 kts | 301° |
| 2026-05-07 16:37 | 35.62602 | 25.35424 | 10752 ft | 253 kts | 297° |
| 2026-05-07 16:37 | 35.63324 | 25.33455 | 10424 ft | 253 kts | 294° |
| 2026-05-07 16:37 | 35.63956 | 25.31438 | 10103 ft | 253 kts | 291° |
| 2026-05-07 16:38 | 35.64494 | 25.29376 | 9746 ft | 253 kts | 288° |
| 2026-05-07 16:38 | 35.64938 | 25.27285 | 9408 ft | 253 kts | 285° |
| 2026-05-07 16:38 | 35.65288 | 25.25170 | 9075 ft | 252 kts | 281° |
| 2026-05-07 16:38 | 35.65541 | 25.23043 | 8734 ft | 252 kts | 278° |
| 2026-05-07 16:39 | 35.65694 | 25.20929 | 8403 ft | 251 kts | 275° |
| 2026-05-07 16:39 | 35.65755 | 25.18791 | 8071 ft | 250 kts | 272° |
| 2026-05-07 16:39 | 35.65721 | 25.16650 | 7744 ft | 250 kts | 269° |
| 2026-05-07 16:39 | 35.65592 | 25.14526 | 7423 ft | 249 kts | 265° |
| 2026-05-07 16:40 | 35.65367 | 25.12421 | 7117 ft | 248 kts | 262° |
| 2026-05-07 16:40 | 35.65049 | 25.10336 | 6807 ft | 247 kts | 259° |
| 2026-05-07 16:40 | 35.64640 | 25.08284 | 6469 ft | 247 kts | 256° |
| 2026-05-07 16:40 | 35.64142 | 25.06263 | 6127 ft | 247 kts | 252° |
| 2026-05-07 16:41 | 35.63561 | 25.04285 | 5796 ft | 246 kts | 249° |
| 2026-05-07 16:41 | 35.62896 | 25.02357 | 5394 ft | 247 kts | 246° |
| 2026-05-07 16:41 | 35.62124 | 25.00499 | 5051 ft | 239 kts | 236° |
| 2026-05-07 16:41 | 35.60900 | 24.99225 | 4735 ft | 229 kts | 204° |
| 2026-05-07 16:42 | 35.59364 | 24.98940 | 4459 ft | 225 kts | 172° |
| 2026-05-07 16:42 | 35.57924 | 24.99635 | 4201 ft | 225 kts | 148° |
| 2026-05-07 16:42 | 35.56608 | 25.00673 | 3932 ft | 225 kts | 147° |
| 2026-05-07 16:42 | 35.55299 | 25.01712 | 3658 ft | 224 kts | 147° |
| 2026-05-07 16:43 | 35.53996 | 25.02747 | 3403 ft | 223 kts | 147° |
| 2026-05-07 16:43 | 35.52696 | 25.03780 | 3130 ft | 222 kts | 147° |
| 2026-05-07 16:43 | 35.51402 | 25.04808 | 2866 ft | 220 kts | 147° |
| 2026-05-07 16:43 | 35.50142 | 25.05808 | 2615 ft | 213 kts | 147° |
| 2026-05-07 16:44 | 35.48926 | 25.06771 | 2364 ft | 203 kts | 147° |
| 2026-05-07 16:44 | 35.47767 | 25.07689 | 2118 ft | 194 kts | 148° |
| 2026-05-07 16:44 | 35.46671 | 25.08560 | 1995 ft | 181 kts | 148° |
| 2026-05-07 16:44 | 35.45643 | 25.09375 | 1830 ft | 171 kts | 148° |
| 2026-05-07 16:45 | 35.44668 | 25.10144 | 1708 ft | 164 kts | 148° |
| 2026-05-07 16:45 | 35.43712 | 25.10841 | 1553 ft | 156 kts | 157° |
| 2026-05-07 16:45 | 35.42701 | 25.11277 | 1423 ft | 153 kts | 164° |
| 2026-05-07 16:45 | 35.41687 | 25.11641 | 1273 ft | 151 kts | 164° |
| 2026-05-07 16:46 | 35.40680 | 25.11991 | 1202 ft | 150 kts | 164° |
| 2026-05-07 16:46 | 35.39668 | 25.12341 | 1145 ft | 151 kts | 164° |
| 2026-05-07 16:46 | 35.38689 | 25.12803 | 1094 ft | 151 kts | 153° |
| 2026-05-07 16:46 | 35.37752 | 25.13379 | 1001 ft | 151 kts | 152° |
| 2026-05-07 16:47 | 35.36841 | 25.14006 | 929 ft | 151 kts | 156° |
| 2026-05-07 16:47 | 35.35834 | 25.14358 | 826 ft | 150 kts | 164° |
| 2026-05-07 16:47 | 35.34879 | 25.14857 | 612 ft | 150 kts | 146° |
| 2026-05-07 16:47 | 35.34207 | 25.15810 | 508 ft | 160 kts | 111° |
| 2026-05-07 16:48 | 35.34017 | 25.17267 | 943 ft | 186 kts | 93° |
| 2026-05-07 16:48 | 35.33928 | 25.18838 | 1523 ft | 189 kts | 92° |
| 2026-05-07 16:48 | 35.34045 | 25.20515 | 1708 ft | 210 kts | 70° |
| 2026-05-07 16:48 | 35.34941 | 25.21991 | 1904 ft | 228 kts | 34° |
| 2026-05-07 16:49 | 35.36433 | 25.22696 | 2486 ft | 231 kts | 11° |
| 2026-05-07 16:49 | 35.38030 | 25.23001 | 2919 ft | 234 kts | 6° |
| 2026-05-07 16:49 | 35.39635 | 25.23296 | 3002 ft | 233 kts | 12° |
| 2026-05-07 16:49 | 35.41205 | 25.23782 | 3011 ft | 232 kts | 14° |
| 2026-05-07 16:50 | 35.42773 | 25.24308 | 3000 ft | 235 kts | 14° |
| 2026-05-07 16:50 | 35.44430 | 25.24873 | 3012 ft | 257 kts | 15° |
| 2026-05-07 16:50 | 35.46169 | 25.25468 | 3010 ft | 261 kts | 14° |
| 2026-05-07 16:50 | 35.47928 | 25.26072 | 3010 ft | 262 kts | 15° |
| 2026-05-07 16:51 | 35.49678 | 25.26690 | 3009 ft | 262 kts | 15° |
| 2026-05-07 16:51 | 35.51428 | 25.27318 | 3011 ft | 262 kts | 15° |
| 2026-05-07 16:51 | 35.53179 | 25.27946 | 3013 ft | 262 kts | 15° |
| 2026-05-07 16:51 | 35.54930 | 25.28570 | 3007 ft | 262 kts | 15° |
| 2026-05-07 16:52 | 35.56712 | 25.29019 | 3008 ft | 262 kts | 4° |
| 2026-05-07 16:52 | 35.58525 | 25.28983 | 3008 ft | 260 kts | 352° |
| 2026-05-07 16:52 | 35.60284 | 25.28463 | 3011 ft | 260 kts | 339° |
| 2026-05-07 16:52 | 35.61904 | 25.27481 | 3011 ft | 260 kts | 326° |
| 2026-05-07 16:53 | 35.63307 | 25.26093 | 3004 ft | 260 kts | 314° |
| 2026-05-07 16:53 | 35.64439 | 25.24366 | 3010 ft | 259 kts | 302° |
| 2026-05-07 16:53 | 35.65231 | 25.22411 | 3008 ft | 260 kts | 290° |
| 2026-05-07 16:53 | 35.65669 | 25.20260 | 3007 ft | 260 kts | 277° |
| 2026-05-07 16:54 | 35.65743 | 25.18040 | 3006 ft | 260 kts | 269° |
| 2026-05-07 16:54 | 35.65658 | 25.15815 | 3006 ft | 260 kts | 266° |
| 2026-05-07 16:54 | 35.65479 | 25.13584 | 2720 ft | 263 kts | 263° |
| 2026-05-07 16:54 | 35.65196 | 25.11379 | 2508 ft | 255 kts | 259° |
| 2026-05-07 16:55 | 35.64836 | 25.09323 | 2446 ft | 236 kts | 257° |
| 2026-05-07 16:55 | 35.64417 | 25.07417 | 2394 ft | 228 kts | 254° |
| 2026-05-07 16:55 | 35.63932 | 25.05571 | 2351 ft | 227 kts | 251° |
| 2026-05-07 16:55 | 35.63371 | 25.03751 | 2294 ft | 227 kts | 248° |
| 2026-05-07 16:56 | 35.62606 | 25.02085 | 2259 ft | 219 kts | 231° |
| 2026-05-07 16:56 | 35.61494 | 25.00858 | 2204 ft | 215 kts | 213° |
| 2026-05-07 16:56 | 35.58653 | 24.99943 | 2163 ft | 215 kts | 177° |
| 2026-05-07 16:57 | 35.57192 | 25.00335 | 2162 ft | 216 kts | 159° |
| 2026-05-07 16:57 | 35.55879 | 25.01241 | 2163 ft | 218 kts | 147° |
| 2026-05-07 16:57 | 35.54607 | 25.02257 | 2166 ft | 218 kts | 147° |
| 2026-05-07 16:57 | 35.53338 | 25.03267 | 2114 ft | 217 kts | 148° |
| 2026-05-07 16:58 | 35.52066 | 25.04275 | 2070 ft | 217 kts | 148° |
| 2026-05-07 16:58 | 35.50798 | 25.05280 | 2024 ft | 217 kts | 148° |
| 2026-05-07 16:58 | 35.49547 | 25.06271 | 1973 ft | 217 kts | 148° |
| 2026-05-07 16:58 | 35.48266 | 25.07286 | 1925 ft | 216 kts | 148° |
| 2026-05-07 16:59 | 35.47020 | 25.08275 | 1876 ft | 216 kts | 148° |
| 2026-05-07 16:59 | 35.45789 | 25.09250 | 1867 ft | 196 kts | 148° |
| 2026-05-07 16:59 | 35.44730 | 25.10086 | 1903 ft | 174 kts | 148° |
| 2026-05-07 16:59 | 35.43744 | 25.10868 | 1918 ft | 166 kts | 148° |
| 2026-05-07 17:00 | 35.42780 | 25.11632 | 1911 ft | 163 kts | 148° |
| 2026-05-07 17:00 | 35.41795 | 25.12258 | 1865 ft | 157 kts | 165° |
| 2026-05-07 17:00 | 35.40737 | 25.12486 | 1843 ft | 153 kts | 172° |
| 2026-05-07 17:00 | 35.39690 | 25.12702 | 1798 ft | 153 kts | 171° |
| 2026-05-07 17:01 | 35.38646 | 25.12933 | 1724 ft | 152 kts | 171° |
| 2026-05-07 17:01 | 35.37604 | 25.12977 | 1549 ft | 149 kts | 189° |
| 2026-05-07 17:01 | 35.36568 | 25.12851 | 1384 ft | 150 kts | 180° |
| 2026-05-07 17:01 | 35.35540 | 25.13021 | 1071 ft | 149 kts | 155° |
| 2026-05-07 17:02 | 35.34764 | 25.13832 | 727 ft | 148 kts | 130° |
| 2026-05-07 17:02 | 35.34289 | 25.14931 | 469 ft | 148 kts | 105° |
| 2026-05-07 17:02 | 35.34117 | 25.16178 | 197 ft | 149 kts | 96° |
| 2026-05-07 17:02 | 35.34018 | 25.17406 | 98 ft | 139 kts | 96° |
| 2026-05-07 17:03 | 35.33948 | 25.18407 | 91 ft | 79 kts | 95° |
| 2026-05-07 17:03 | 35.33925 | 25.18758 | 91 ft | 24 kts | 95° |
| 2026-05-07 17:03 | 35.33909 | 25.18960 | 91 ft | 13 kts | 95° |
| 2026-05-07 17:03 | 35.33874 | 25.19010 | 91 ft | 7 kts | 190° |
| 2026-05-07 17:04 | 35.33841 | 25.18967 | 92 ft | 7 kts | 234° |
| 2026-05-07 17:04 | 35.33798 | 25.18910 | 90 ft | 10 kts | 216° |
| 2026-05-07 17:04 | 35.33732 | 25.18859 | 92 ft | 12 kts | 212° |
| 2026-05-07 17:04 | 35.33656 | 25.18802 | 92 ft | 13 kts | 211° |
| 2026-05-07 17:05 | 35.33583 | 25.18730 | 91 ft | 15 kts | 243° |
| 2026-05-07 17:05 | 35.33617 | 25.18614 | 93 ft | 16 kts | 305° |
| 2026-05-07 17:05 | 35.33683 | 25.18503 | 93 ft | 16 kts | 307° |
| 2026-05-07 17:05 | 35.33752 | 25.18387 | 92 ft | 18 kts | 306° |
| 2026-05-07 17:06 | 35.33809 | 25.18293 | 93 ft | 13 kts | 307° |
| 2026-05-07 17:06 | 35.33859 | 25.18200 | 95 ft | 13 kts | 290° |
| 2026-05-07 17:06 | 35.33871 | 25.18080 | 94 ft | 15 kts | 274° |
| 2026-05-07 17:06 | 35.33882 | 25.17941 | 95 ft | 17 kts | 275° |
| 2026-05-07 17:07 | 35.33892 | 25.17793 | 92 ft | 18 kts | 275° |
| 2026-05-07 17:07 | 35.33903 | 25.17633 | 91 ft | 20 kts | 275° |
| 2026-05-07 17:07 | 35.33915 | 25.17458 | 91 ft | 21 kts | 274° |
| 2026-05-07 17:07 | 35.33925 | 25.17314 | 91 ft | 13 kts | 275° |
| 2026-05-07 17:08 | 35.33931 | 25.17217 | 91 ft | 7 kts | 266° |
| 2026-05-07 17:08 | 35.33890 | 25.17195 | 92 ft | 7 kts | 188° |
| 2026-05-07 17:08 | 35.33881 | 25.17169 | 92 ft | 0 kts | 304° |
| 2026-05-07 17:08 | 35.33886 | 25.17160 | 94 ft | 2 kts | 308° |
| 2026-05-07 17:09 | 35.33888 | 25.17158 | 93 ft | 0 kts | 311° |